Time;durP1;ratioP1;P1;durP2;ratioP2;P2;SDS_P1;SDS_P2;PMS_P1;PMS_P2;Temp;Humidity;BMP_temperature;BMP_pressure;BME280_temperature;BME280_humidity;BME280_pressure;Samples;Min_cycle;Max_cycle;Signal;HPM_P1;HPM_P2
2021/08/07 00:01:53;;;;;;;5.00;3.20;;;15.60;1.00;16.60;99692.00;;;;5091356;28;20580;-75
2021/08/07 00:04:22;;;;;;;6.60;3.17;;;15.60;1.00;16.60;99698.00;;;;5090914;28;20643;-73
2021/08/07 00:06:50;;;;;;;5.13;3.30;;;15.50;1.00;16.50;99701.00;;;;5090252;28;20458;-75
2021/08/07 00:09:20;;;;;;;8.67;3.40;;;15.50;1.00;16.50;99693.00;;;;5086288;28;20883;-75
2021/08/07 00:11:48;;;;;;;6.37;4.00;;;15.40;1.00;16.50;99686.00;;;;5094134;28;20450;-74
2021/08/07 00:14:17;;;;;;;4.90;3.80;;;15.40;1.00;16.40;99695.00;;;;5097611;27;20896;-74
2021/08/07 00:16:46;;;;;;;6.90;3.87;;;15.50;1.00;16.60;99702.00;;;;5090248;28;20842;-75
2021/08/07 00:19:14;;;;;;;9.00;3.30;;;15.50;1.00;16.50;99694.00;;;;5100547;28;20448;-72
2021/08/07 00:21:42;;;;;;;7.07;3.63;;;15.50;1.00;16.70;99698.00;;;;5093446;28;20448;-74
2021/08/07 00:24:11;;;;;;;6.37;3.70;;;15.50;1.00;16.70;99678.00;;;;5093713;28;20464;-75
2021/08/07 00:26:41;;;;;;;4.40;3.13;;;15.60;1.00;16.80;99676.00;;;;5099026;28;20456;-76
2021/08/07 00:29:09;;;;;;;4.40;3.80;;;15.60;1.00;16.80;99650.00;;;;5103588;28;20461;-74
2021/08/07 00:31:37;;;;;;;5.60;3.73;;;15.70;1.00;16.80;99687.00;;;;5094755;28;20449;-72
2021/08/07 00:34:06;;;;;;;10.70;4.17;;;15.70;1.00;16.90;99697.00;;;;5095255;28;20481;-74
2021/08/07 00:36:35;;;;;;;7.23;4.10;;;15.70;1.00;16.90;99681.00;;;;5117191;27;20501;-74
2021/08/07 00:39:03;;;;;;;5.10;4.17;;;15.80;1.00;16.90;99679.00;;;;5096093;28;20457;-76
2021/08/07 00:41:32;;;;;;;4.93;4.43;;;15.80;1.00;16.90;99641.00;;;;5096036;28;20454;-73
2021/08/07 00:44:03;;;;;;;4.70;3.53;;;16.00;1.00;17.00;99682.00;;;;5115259;27;20539;-73
2021/08/07 00:46:36;;;;;;;4.60;2.97;;;15.90;1.00;17.00;99673.00;;;;5099039;28;20457;-73
2021/08/07 00:49:05;;;;;;;7.07;3.80;;;16.00;1.00;17.00;99665.00;;;;5107779;28;20516;-74
2021/08/07 00:51:36;;;;;;;5.27;3.73;;;16.00;1.00;17.10;99648.00;;;;5122300;27;20453;-76
2021/08/07 00:54:11;;;;;;;8.30;3.63;;;16.00;1.00;17.00;99672.00;;;;5103930;28;21024;-72
2021/08/07 00:56:58;;;;;;;5.80;3.67;;;16.00;1.00;17.10;99672.00;;;;5100748;28;20488;-73
2021/08/07 00:59:29;;;;;;;4.33;3.60;;;16.00;1.00;17.10;99674.00;;;;5124768;27;20429;-72
2021/08/07 01:02:03;;;;;;;4.70;3.80;;;16.00;1.00;17.10;99654.00;;;;5093956;28;21136;-75
2021/08/07 01:04:46;;;;;;;3.33;2.90;;;16.10;1.00;17.10;99662.00;;;;5130653;27;20465;-74
2021/08/07 01:07:27;;;;;;;5.57;3.50;;;16.00;1.00;17.10;99655.00;;;;5119489;27;20540;-74
2021/08/07 01:10:12;;;;;;;4.23;3.27;;;16.00;1.00;17.10;99651.00;;;;5096790;28;20526;-73
2021/08/07 01:12:52;;;;;;;3.80;3.10;;;16.00;1.00;17.10;99666.00;;;;5112893;27;20557;-73
2021/08/07 01:15:25;;;;;;;4.90;3.53;;;16.00;1.00;17.10;99656.00;;;;5095765;28;20472;-72
2021/08/07 01:17:57;;;;;;;5.70;3.30;;;16.00;1.00;17.00;99661.00;;;;5090533;28;20573;-75
2021/08/07 01:20:33;;;;;;;3.30;3.00;;;15.90;1.00;16.90;99664.00;;;;5089133;28;20457;-72
2021/08/07 01:23:10;;;;;;;4.73;3.20;;;15.90;1.00;16.90;99655.00;;;;5090484;28;22148;-74
2021/08/07 01:25:54;;;;;;;6.00;3.40;;;16.00;1.00;17.00;99644.00;;;;5097716;28;20962;-71
2021/08/07 01:28:33;;;;;;;4.50;3.33;;;16.00;1.00;17.10;99647.00;;;;5094988;28;20901;-73
2021/08/07 01:31:05;;;;;;;3.23;2.93;;;16.10;1.00;17.10;99645.00;;;;5093996;28;21064;-72
2021/08/07 01:33:37;;;;;;;4.43;3.23;;;16.10;1.00;17.10;99650.00;;;;5114353;27;20478;-74
2021/08/07 01:36:15;;;;;;;7.47;3.20;;;16.00;1.00;17.10;99644.00;;;;5096937;28;20457;-73
2021/08/07 01:38:49;;;;;;;3.40;3.00;;;16.00;1.00;17.10;99657.00;;;;5108913;27;20891;-74
2021/08/07 01:41:22;;;;;;;4.00;2.83;;;16.00;1.00;17.20;99649.00;;;;5087451;28;20487;-75
2021/08/07 01:44:02;;;;;;;3.00;2.70;;;16.10;1.00;17.20;99607.00;;;;5088940;28;20478;-71
2021/08/07 01:46:35;;;;;;;5.80;3.40;;;16.10;1.00;17.20;99656.00;;;;5098536;28;21071;-73
2021/08/07 01:49:13;;;;;;;6.50;2.90;;;16.20;1.00;17.20;99625.00;;;;5109017;27;20541;-71
2021/08/07 01:51:56;;;;;;;4.67;3.20;;;16.10;1.00;17.20;99602.00;;;;5093168;28;20481;-72
2021/08/07 01:54:34;;;;;;;5.27;3.30;;;16.10;1.00;17.10;99647.00;;;;5071357;28;20493;-74
2021/08/07 01:57:13;;;;;;;5.30;3.03;;;16.00;1.00;17.10;99641.00;;;;5087931;28;20875;-73
2021/08/07 01:59:47;;;;;;;4.97;3.00;;;16.00;1.00;17.00;99636.00;;;;5094426;28;20445;-74
2021/08/07 02:02:16;;;;;;;7.33;3.50;;;16.00;1.00;16.90;99628.00;;;;5093550;28;20923;-74
2021/08/07 02:04:49;;;;;;;5.83;3.37;;;15.90;1.00;16.90;99642.00;;;;5095449;28;20538;-74
2021/08/07 02:07:23;;;;;;;4.73;3.30;;;15.90;1.00;16.90;99617.00;;;;5090786;28;20448;-74
2021/08/07 02:10:00;;;;;;;5.93;3.20;;;15.90;1.00;16.90;99647.00;;;;5095381;28;20807;-74
2021/08/07 02:12:31;;;;;;;6.93;3.30;;;16.00;1.00;16.90;99606.00;;;;5096060;28;20840;-74
2021/08/07 02:15:12;;;;;;;6.00;3.17;;;16.00;1.00;16.90;99588.00;;;;5094954;28;20478;-75
2021/08/07 02:17:43;;;;;;;3.90;3.00;;;16.00;1.00;16.90;99618.00;;;;5094223;28;20576;-74
2021/08/07 02:20:16;;;;;;;4.60;3.10;;;16.00;1.00;16.90;99634.00;;;;5086669;28;20458;-74
2021/08/07 02:22:50;;;;;;;5.40;3.23;;;16.00;1.00;16.90;99616.00;;;;5087191;28;21028;-73
2021/08/07 02:25:22;;;;;;;3.90;2.90;;;16.00;1.00;16.90;99633.00;;;;5086832;28;20528;-73
2021/08/07 02:28:11;;;;;;;7.33;3.57;;;16.00;1.00;16.90;99627.00;;;;5093500;28;20442;-72
2021/08/07 02:30:43;;;;;;;5.37;2.97;;;16.00;1.00;16.90;99629.00;;;;5094793;28;20951;-74
2021/08/07 02:33:14;;;;;;;4.27;3.00;;;16.00;1.00;16.90;99614.00;;;;5094150;28;20556;-74
2021/08/07 02:35:44;;;;;;;7.10;3.40;;;16.00;1.00;16.90;99615.00;;;;5090388;28;20569;-73
2021/08/07 02:38:16;;;;;;;6.20;3.23;;;16.00;1.00;16.80;99586.00;;;;5090976;28;20488;-71
2021/08/07 02:40:45;;;;;;;3.73;3.03;;;15.90;1.00;16.70;99603.00;;;;5089944;28;20442;-72
2021/08/07 02:43:18;;;;;;;3.33;3.03;;;15.90;1.00;16.70;99599.00;;;;5103772;27;20504;-74
2021/08/07 02:45:48;;;;;;;4.77;3.33;;;15.90;1.00;16.60;99602.00;;;;5094305;28;20477;-74
2021/08/07 02:48:27;;;;;;;4.63;3.00;;;15.80;1.00;16.60;99586.00;;;;5086250;28;20450;-74
2021/08/07 02:51:00;;;;;;;3.90;3.37;;;15.70;1.00;16.60;99610.00;;;;5093166;28;20440;-73
2021/08/07 02:53:34;;;;;;;6.50;3.47;;;15.70;1.00;16.60;99582.00;;;;5090581;28;20475;-74
2021/08/07 02:56:03;;;;;;;4.53;2.80;;;15.70;1.00;16.60;99612.00;;;;5090826;28;21924;-73
2021/08/07 02:58:31;;;;;;;5.90;3.00;;;15.70;1.00;16.60;99539.00;;;;5091160;28;20457;-72
2021/08/07 03:01:02;;;;;;;6.03;3.30;;;15.70;1.00;16.70;99601.00;;;;5092670;28;20469;-75
2021/08/07 03:03:33;;;;;;;4.63;3.33;;;15.70;1.00;16.60;99599.00;;;;5095032;28;20469;-73
2021/08/07 03:06:04;;;;;;;7.70;3.73;;;15.70;1.00;16.70;99606.00;;;;5123187;27;20479;-72
2021/08/07 03:08:35;;;;;;;4.80;3.50;;;15.70;1.00;16.70;99595.00;;;;5109750;28;21203;-75
2021/08/07 03:11:04;;;;;;;4.87;3.20;;;15.80;1.00;16.70;99596.00;;;;5110694;28;20491;-71
2021/08/07 03:13:33;;;;;;;5.63;3.37;;;15.80;1.00;16.70;99575.00;;;;5111757;28;20538;-75
2021/08/07 03:16:03;;;;;;;3.93;3.43;;;15.90;1.00;16.70;99588.00;;;;5094926;28;20469;-73
2021/08/07 03:18:38;;;;;;;9.97;3.80;;;15.90;1.00;16.60;99601.00;;;;5091278;28;21098;-73
2021/08/07 03:21:07;;;;;;;9.50;3.60;;;15.80;1.00;16.50;99591.00;;;;5088683;28;20462;-75
2021/08/07 03:23:44;;;;;;;6.47;3.60;;;15.80;1.00;16.50;99564.00;;;;5092999;28;20533;-75
2021/08/07 03:26:13;;;;;;;4.00;3.47;;;15.80;1.00;16.40;99576.00;;;;5109660;28;20524;-75
2021/08/07 03:28:41;;;;;;;5.43;3.53;;;15.70;1.00;16.40;99587.00;;;;5090904;28;21681;-74
2021/08/07 03:31:15;;;;;;;6.40;3.43;;;15.60;1.00;16.40;99598.00;;;;5106100;27;20951;-73
2021/08/07 03:33:44;;;;;;;5.57;3.80;;;15.60;1.00;16.40;99580.00;;;;5091210;28;20466;-73
2021/08/07 03:36:14;;;;;;;7.27;3.57;;;15.60;1.00;16.50;99569.00;;;;5068517;28;20522;-73
2021/08/07 03:38:46;;;;;;;3.83;3.07;;;15.70;1.00;16.50;99594.00;;;;5090671;28;20450;-73
2021/08/07 03:41:14;;;;;;;4.23;3.30;;;15.60;1.00;16.50;99595.00;;;;5095183;28;20525;-76
2021/08/07 03:43:43;;;;;;;3.47;3.10;;;15.60;1.00;16.50;99592.00;;;;5092284;28;20481;-75
2021/08/07 03:46:11;;;;;;;3.53;2.73;;;15.70;1.00;16.50;99611.00;;;;5094395;28;20457;-73
2021/08/07 03:48:41;;;;;;;4.07;3.30;;;15.80;1.00;16.50;99588.00;;;;5087496;28;20458;-75
2021/08/07 03:51:10;;;;;;;3.80;3.10;;;15.70;1.00;16.50;99587.00;;;;5089926;28;20457;-74
2021/08/07 03:53:45;;;;;;;3.80;3.00;;;15.70;1.00;16.60;99585.00;;;;5091225;28;20512;-73
2021/08/07 03:56:19;;;;;;;4.03;3.10;;;15.80;1.00;16.60;99582.00;;;;5094816;28;20504;-74
2021/08/07 03:58:48;;;;;;;6.97;3.70;;;15.80;1.00;16.60;99586.00;;;;5089377;28;20449;-70
2021/08/07 04:01:22;;;;;;;5.83;3.93;;;15.80;1.00;16.60;99579.00;;;;5087579;28;20515;-74
2021/08/07 04:03:54;;;;;;;6.30;3.10;;;15.80;1.00;16.60;99561.00;;;;5091435;28;20465;-74
2021/08/07 04:06:37;;;;;;;4.87;2.97;;;15.80;1.00;16.70;99584.00;;;;5103680;28;20462;-74
2021/08/07 04:09:08;;;;;;;6.43;3.23;;;15.80;1.00;16.70;99586.00;;;;5089061;28;20442;-74
2021/08/07 04:11:36;;;;;;;5.17;3.17;;;15.90;1.00;16.80;99549.00;;;;5099490;28;20460;-71
2021/08/07 04:14:06;;;;;;;4.07;3.03;;;16.00;1.00;16.80;99576.00;;;;5091306;28;20473;-74
2021/08/07 04:16:36;;;;;;;3.83;3.30;;;15.90;1.00;16.80;99575.00;;;;5088351;28;20501;-73
2021/08/07 04:19:14;;;;;;;5.23;3.40;;;16.00;1.00;16.80;99477.00;;;;5077504;28;20506;-74
2021/08/07 04:21:45;;;;;;;4.10;3.00;;;16.00;1.00;16.90;99569.00;;;;5092229;28;20461;-74
2021/08/07 04:24:14;;;;;;;5.00;3.10;;;16.10;1.00;16.80;99566.00;;;;5094328;28;20461;-72
2021/08/07 04:26:43;;;;;;;4.30;2.70;;;16.10;1.00;16.90;99534.00;;;;5089678;28;20453;-72
2021/08/07 04:29:14;;;;;;;5.40;3.30;;;16.10;1.00;17.00;99570.00;;;;5086478;28;20459;-71
2021/08/07 04:31:44;;;;;;;5.27;3.30;;;16.10;1.00;17.00;99573.00;;;;5089299;28;20469;-75
2021/08/07 04:34:14;;;;;;;5.33;2.63;;;16.20;1.00;17.00;99546.00;;;;5093561;28;20481;-74
2021/08/07 04:36:43;;;;;;;3.80;3.00;;;16.20;1.00;17.10;99567.00;;;;5091054;28;20507;-72
2021/08/07 04:39:11;;;;;;;5.87;3.20;;;16.20;1.00;17.00;99576.00;;;;5093954;28;20883;-72
2021/08/07 04:41:40;;;;;;;4.33;3.20;;;16.20;1.00;17.10;99563.00;;;;5103435;28;20453;-73
2021/08/07 04:44:09;;;;;;;4.53;3.10;;;16.30;1.00;17.10;99570.00;;;;5122241;27;20541;-72
2021/08/07 04:46:40;;;;;;;5.60;3.20;;;16.40;1.00;17.20;99566.00;;;;5102951;28;20453;-75
2021/08/07 04:49:10;;;;;;;5.53;3.20;;;16.40;1.00;17.30;99565.00;;;;5112746;27;20453;-74
2021/08/07 04:51:40;;;;;;;3.70;2.73;;;16.40;1.00;17.30;99551.00;;;;5091989;28;20449;-71
2021/08/07 04:54:10;;;;;;;4.97;3.17;;;16.50;1.00;17.30;99548.00;;;;5095700;28;20470;-73
2021/08/07 04:56:42;;;;;;;4.83;3.20;;;16.60;1.00;17.40;99534.00;;;;5093957;28;20480;-73
2021/08/07 04:59:11;;;;;;;6.67;2.90;;;16.60;1.00;17.50;99534.00;;;;5108903;27;20528;-72
2021/08/07 05:01:39;;;;;;;4.07;2.70;;;16.60;1.00;17.50;99547.00;;;;5097026;28;20457;-74
2021/08/07 05:04:10;;;;;;;4.63;2.90;;;16.60;1.00;17.50;99541.00;;;;5092976;28;20476;-73
2021/08/07 05:06:44;;;;;;;4.77;3.03;;;16.70;1.00;17.60;99544.00;;;;5095254;28;20488;-72
2021/08/07 05:09:12;;;;;;;5.83;2.87;;;16.70;1.00;17.60;99548.00;;;;5075762;28;20464;-74
2021/08/07 05:12:00;;;;;;;3.93;3.20;;;16.80;1.00;17.70;99550.00;;;;5100583;28;20456;-74
2021/08/07 05:14:29;;;;;;;4.67;3.00;;;16.80;1.00;17.70;99554.00;;;;5111916;27;20481;-74
2021/08/07 05:16:58;;;;;;;4.13;2.80;;;16.90;1.00;17.80;99543.00;;;;5079718;28;20512;-73
2021/08/07 05:19:26;;;;;;;4.70;3.17;;;17.00;1.00;17.70;99522.00;;;;5094967;28;20497;-75
2021/08/07 05:21:56;;;;;;;6.23;2.93;;;17.00;1.00;17.80;99542.00;;;;5109096;28;20457;-71
2021/08/07 05:24:25;;;;;;;6.87;3.10;;;17.00;1.00;17.80;99555.00;;;;5103978;28;20466;-71
2021/08/07 05:26:53;;;;;;;7.60;3.40;;;17.00;1.00;17.90;99551.00;;;;5122244;28;20454;-70
2021/08/07 05:29:22;;;;;;;3.90;3.00;;;17.00;1.00;17.90;99541.00;;;;5114821;28;20562;-72
2021/08/07 05:31:50;;;;;;;4.67;3.40;;;17.10;1.00;18.00;99545.00;;;;5102552;28;20445;-74
2021/08/07 05:34:18;;;;;;;4.80;3.37;;;17.20;1.00;18.00;99542.00;;;;5109642;28;20550;-72
2021/08/07 05:36:47;;;;;;;5.87;3.43;;;17.20;1.00;18.00;99540.00;;;;5088803;28;20490;-72
2021/08/07 05:39:17;;;;;;;8.10;3.40;;;17.30;1.00;18.10;99528.00;;;;5104935;28;20450;-73
2021/08/07 05:41:45;;;;;;;5.07;3.67;;;17.40;1.00;18.20;99534.00;;;;5105039;28;20511;-73
2021/08/07 05:44:14;;;;;;;6.43;3.60;;;17.50;1.00;18.30;99536.00;;;;5109017;28;20916;-72
2021/08/07 05:46:42;;;;;;;4.63;3.50;;;17.60;1.00;18.40;99538.00;;;;5117376;27;20454;-72
2021/08/07 05:49:11;;;;;;;4.30;3.10;;;17.60;1.00;18.50;99529.00;;;;5099772;28;20452;-74
2021/08/07 05:51:39;;;;;;;3.80;2.87;;;17.70;1.00;18.60;99536.00;;;;5118688;27;20512;-74
2021/08/07 05:54:09;;;;;;;5.80;3.07;;;17.80;1.00;18.70;99524.00;;;;5110297;27;20500;-74
2021/08/07 05:56:38;;;;;;;7.13;3.03;;;17.90;1.00;18.80;99546.00;;;;5112851;27;20465;-74
2021/08/07 05:59:08;;;;;;;6.37;3.20;;;18.00;1.00;18.90;99547.00;;;;5094284;28;20468;-71
2021/08/07 06:01:37;;;;;;;5.97;3.20;;;18.10;1.00;19.00;99517.00;;;;5072518;28;20557;-74
2021/08/07 06:04:06;;;;;;;5.80;4.23;;;18.20;1.00;19.20;99538.00;;;;5094757;28;20512;-71
2021/08/07 06:06:35;;;;;;;5.40;4.70;;;18.30;1.00;19.20;99500.00;;;;5090115;28;20588;-74
2021/08/07 06:09:04;;;;;;;8.77;5.30;;;18.40;1.00;19.20;99549.00;;;;5095252;28;20470;-71
2021/08/07 06:11:32;;;;;;;7.60;5.23;;;18.50;1.00;19.20;99529.00;;;;5094750;28;20529;-73
2021/08/07 06:14:02;;;;;;;5.27;3.97;;;18.50;1.00;19.30;99514.00;;;;5096115;28;20473;-74
2021/08/07 06:16:32;;;;;;;5.67;4.00;;;18.60;1.00;19.40;99505.00;;;;5114220;27;20473;-74
2021/08/07 06:19:03;;;;;;;8.37;6.20;;;18.60;1.00;19.50;99526.00;;;;5094221;28;20489;-74
2021/08/07 06:21:31;;;;;;;7.93;5.90;;;18.70;1.00;19.60;99521.00;;;;5097264;28;20482;-73
2021/08/07 06:24:00;;;;;;;9.93;6.00;;;18.80;1.00;19.60;99494.00;;;;5101804;28;20470;-74
2021/08/07 06:26:32;;;;;;;12.10;6.10;;;18.90;1.00;19.70;99531.00;;;;5095531;28;21299;-73
2021/08/07 06:29:05;;;;;;;7.43;6.03;;;18.90;1.00;19.80;99523.00;;;;5096302;28;20585;-72
2021/08/07 06:31:33;;;;;;;7.60;4.80;;;19.00;1.00;20.00;99526.00;;;;5074288;28;20450;-76
2021/08/07 06:34:03;;;;;;;6.40;4.97;;;19.10;1.00;20.20;99507.00;;;;5097664;28;20478;-74
2021/08/07 06:36:32;;;;;;;5.43;3.30;;;19.30;1.00;20.40;99527.00;;;;5100604;28;20450;-75
2021/08/07 06:39:02;;;;;;;7.30;3.60;;;19.60;1.00;20.60;99532.00;;;;5118187;27;20947;-74
2021/08/07 06:41:31;;;;;;;4.73;3.80;;;19.80;1.00;20.80;99499.00;;;;5083241;28;21004;-72
2021/08/07 06:44:12;;;;;;;5.63;3.20;;;19.90;1.00;20.90;99472.00;;;;5101516;28;20502;-74
2021/08/07 06:46:42;;;;;;;7.57;3.30;;;20.10;1.00;20.70;99539.00;;;;5112400;28;20533;-71
2021/08/07 06:49:11;;;;;;;4.93;3.33;;;20.10;1.00;21.10;99551.00;;;;5111999;28;20449;-72
2021/08/07 06:51:40;;;;;;;8.30;3.00;;;20.30;1.00;21.20;99537.00;;;;5110376;28;20462;-74
2021/08/07 06:54:10;;;;;;;5.83;3.30;;;20.40;1.00;21.30;99517.00;;;;5102687;28;20479;-72
2021/08/07 06:56:39;;;;;;;4.67;2.73;;;20.60;1.00;21.50;99535.00;;;;5107493;28;20482;-75
2021/08/07 06:59:07;;;;;;;5.10;2.73;;;20.70;1.00;21.60;99531.00;;;;5114481;28;20456;-72
2021/08/07 07:01:37;;;;;;;4.80;2.70;;;20.70;1.00;21.70;99540.00;;;;5113685;28;21032;-73
2021/08/07 07:04:06;;;;;;;6.70;2.70;;;20.70;1.00;21.80;99534.00;;;;5115572;28;20473;-72
2021/08/07 07:06:35;;;;;;;3.30;2.20;;;20.80;1.00;21.90;99533.00;;;;5118816;28;20517;-71
2021/08/07 07:09:03;;;;;;;5.60;2.67;;;20.80;1.00;21.90;99533.00;;;;5087080;28;20683;-72
2021/08/07 07:11:32;;;;;;;7.87;2.33;;;20.80;1.00;22.10;99516.00;;;;5094738;28;20478;-73
2021/08/07 07:14:02;;;;;;;3.43;2.10;;;20.90;1.00;22.10;99529.00;;;;5097736;28;20535;-72
2021/08/07 07:16:31;;;;;;;3.23;2.30;;;21.00;1.00;22.30;99525.00;;;;5093336;28;20453;-72
2021/08/07 07:19:02;;;;;;;4.83;2.10;;;21.10;1.00;22.40;99505.00;;;;5088877;28;20570;-74
2021/08/07 07:21:31;;;;;;;3.57;2.03;;;21.20;1.00;22.60;99506.00;;;;5094801;28;20448;-73
2021/08/07 07:23:59;;;;;;;4.33;2.10;;;21.40;1.00;22.70;99515.00;;;;5095068;28;20492;-71
2021/08/07 07:26:29;;;;;;;4.63;2.70;;;21.60;1.00;22.70;99525.00;;;;5108871;28;20452;-71
2021/08/07 07:28:59;;;;;;;5.57;2.50;;;21.60;1.00;22.80;99470.00;;;;5133830;28;20444;-73
2021/08/07 07:31:28;;;;;;;4.90;2.30;;;21.60;1.00;22.90;99526.00;;;;5135196;28;20442;-74
2021/08/07 07:33:58;;;;;;;2.90;2.40;;;21.70;1.00;23.00;99483.00;;;;5114533;28;20486;-72
2021/08/07 07:36:30;;;;;;;4.27;2.20;;;21.90;1.00;23.20;99501.00;;;;5111075;28;20487;-72
2021/08/07 07:38:58;;;;;;;6.53;2.37;;;22.00;1.00;23.40;99525.00;;;;5096046;28;20469;-71
2021/08/07 07:41:27;;;;;;;5.80;3.20;;;22.20;1.00;23.50;99513.00;;;;5092071;28;20483;-74
2021/08/07 07:43:55;;;;;;;4.73;3.00;;;22.20;1.00;23.60;99510.00;;;;5094870;28;20472;-73
2021/08/07 07:46:24;;;;;;;5.23;2.53;;;22.20;1.00;23.70;99500.00;;;;5090319;28;20510;-73
2021/08/07 07:48:53;;;;;;;7.00;2.80;;;22.30;1.00;23.80;99521.00;;;;5092571;28;20566;-73
2021/08/07 07:51:21;;;;;;;4.83;2.63;;;22.40;1.00;23.90;99526.00;;;;5083906;28;20481;-73
2021/08/07 07:53:52;;;;;;;3.60;2.30;;;22.50;1.00;23.90;99524.00;;;;5095034;28;20480;-75
2021/08/07 07:56:20;;;;;;;3.90;2.20;;;22.50;1.00;23.80;99536.00;;;;5093284;28;20914;-75
2021/08/07 07:58:49;;;;;;;4.77;2.10;;;22.30;1.00;23.80;99530.00;;;;5085405;28;21053;-73
2021/08/07 08:01:18;;;;;;;3.30;2.00;;;22.30;1.00;23.80;99507.00;;;;5094141;28;20597;-74
2021/08/07 08:03:47;;;;;;;4.13;1.80;;;22.30;1.00;23.70;99528.00;;;;5093373;28;20476;-75
2021/08/07 08:06:16;;;;;;;4.37;2.00;;;22.30;1.00;23.60;99518.00;;;;5107796;28;20442;-74
2021/08/07 08:08:44;;;;;;;2.80;1.90;;;22.30;1.00;23.50;99521.00;;;;5090938;28;20465;-74
2021/08/07 08:11:14;;;;;;;4.73;1.70;;;22.20;1.00;23.50;99523.00;;;;5074275;28;20454;-75
2021/08/07 08:13:42;;;;;;;4.57;1.67;;;22.20;1.00;23.50;99495.00;;;;5095290;28;20561;-74
2021/08/07 08:16:11;;;;;;;3.13;2.00;;;22.10;1.00;23.30;99513.00;;;;5116984;27;20910;-73
2021/08/07 08:18:40;;;;;;;2.40;1.63;;;22.00;1.00;23.40;99514.00;;;;5109715;28;20473;-74
2021/08/07 08:21:09;;;;;;;3.23;1.40;;;22.00;1.00;23.40;99513.00;;;;5107352;28;20470;-72
2021/08/07 08:23:37;;;;;;;2.23;1.57;;;22.00;1.00;23.40;99520.00;;;;5095211;28;20858;-74
2021/08/07 08:26:06;;;;;;;4.73;1.57;;;22.10;1.00;23.50;99512.00;;;;5098908;28;20446;-76
2021/08/07 08:28:35;;;;;;;3.57;1.90;;;22.20;1.00;23.70;99491.00;;;;5098173;28;20454;-74
2021/08/07 08:31:04;;;;;;;3.30;1.33;;;22.40;1.00;23.60;99507.00;;;;5100199;28;20457;-73
2021/08/07 08:33:33;;;;;;;5.27;1.97;;;22.50;1.00;23.80;99509.00;;;;5100214;28;20540;-74
2021/08/07 08:36:02;;;;;;;5.10;2.00;;;22.50;1.00;23.80;99507.00;;;;5095424;28;20823;-74
2021/08/07 08:38:30;;;;;;;3.03;1.90;;;22.70;1.00;23.90;99505.00;;;;5112756;27;20477;-73
2021/08/07 08:41:01;;;;;;;3.00;1.47;;;22.70;1.00;23.90;99516.00;;;;5094186;28;20528;-74
2021/08/07 08:43:32;;;;;;;3.23;1.40;;;22.70;1.00;23.70;99506.00;;;;5079996;28;21029;-77
2021/08/07 08:46:02;;;;;;;4.07;1.50;;;22.70;1.00;23.50;99453.00;;;;5098655;28;20462;-74
2021/08/07 08:48:31;;;;;;;7.10;3.67;;;22.70;1.00;23.80;99480.00;;;;5118918;27;20465;-74
2021/08/07 08:51:04;;;;;;;5.53;2.10;;;22.80;1.00;23.80;99501.00;;;;5097409;28;20514;-71
2021/08/07 08:53:33;;;;;;;4.77;1.80;;;22.90;1.00;23.70;99459.00;;;;5098613;28;20470;-73
2021/08/07 08:56:01;;;;;;;4.57;2.00;;;22.80;1.00;23.70;99480.00;;;;5093388;28;20454;-72
2021/08/07 08:58:32;;;;;;;5.10;2.13;;;22.80;1.00;23.80;99498.00;;;;5094421;28;20511;-73
2021/08/07 09:01:04;;;;;;;6.10;1.60;;;22.80;1.00;23.90;99498.00;;;;5094848;28;20464;-75
2021/08/07 09:03:34;;;;;;;3.80;2.03;;;23.10;1.00;24.10;99494.00;;;;5102541;28;20476;-74
2021/08/07 09:06:03;;;;;;;5.50;2.43;;;23.20;1.00;24.40;99482.00;;;;5097778;28;20441;-74
2021/08/07 09:08:31;;;;;;;4.87;1.90;;;23.50;1.00;24.80;99476.00;;;;5097092;28;20970;-74
2021/08/07 09:11:15;;;;;;;2.30;1.30;;;23.80;1.00;25.00;99486.00;;;;5094501;28;20485;-73
2021/08/07 09:13:48;;;;;;;4.17;2.10;;;24.10;1.00;25.10;99494.00;;;;5098858;28;20477;-71
2021/08/07 09:16:18;;;;;;;4.73;1.87;;;24.10;1.00;25.40;99483.00;;;;5115368;27;20461;-75
2021/08/07 09:18:56;;;;;;;3.33;1.80;;;24.40;1.00;25.70;99474.00;;;;5096191;28;20465;-73
2021/08/07 09:21:24;;;;;;;6.57;1.43;;;24.70;1.00;26.00;99481.00;;;;5101471;28;20524;-75
2021/08/07 09:24:08;;;;;;;4.03;1.63;;;24.90;1.00;26.10;99446.00;;;;5104707;28;20488;-73
2021/08/07 09:26:43;;;;;;;5.67;1.93;;;25.00;1.00;26.30;99459.00;;;;5105516;28;20962;-75
2021/08/07 09:29:12;;;;;;;2.23;1.27;;;25.10;1.00;26.30;99458.00;;;;5116340;28;20452;-72
2021/08/07 09:31:58;;;;;;;4.23;1.90;;;25.00;1.00;26.10;99469.00;;;;5104892;28;20446;-75
2021/08/07 09:34:30;;;;;;;2.97;1.20;;;25.10;1.00;26.10;99452.00;;;;5098343;28;20470;-72
2021/08/07 09:37:02;;;;;;;4.30;1.60;;;25.00;1.00;26.30;99458.00;;;;5098508;28;20461;-74
2021/08/07 09:39:38;;;;;;;3.30;1.50;;;25.00;1.00;26.40;99455.00;;;;5112738;27;20566;-73
2021/08/07 09:42:13;;;;;;;2.63;1.43;;;25.10;1.00;26.10;99452.00;;;;5096804;28;20492;-75
2021/08/07 09:44:42;;;;;;;3.37;1.30;;;25.10;1.00;26.10;99451.00;;;;5096123;28;20569;-74
2021/08/07 09:47:15;;;;;;;2.47;1.37;;;25.00;1.00;26.10;99463.00;;;;5100330;28;20916;-75
2021/08/07 09:49:47;;;;;;;2.03;1.37;;;24.90;1.00;26.00;99421.00;;;;5111721;27;20458;-73
2021/08/07 09:52:17;;;;;;;2.87;1.50;;;24.90;1.00;26.20;99468.00;;;;5092183;28;21137;-71
2021/08/07 09:54:47;;;;;;;2.57;1.60;;;24.90;1.00;25.90;99465.00;;;;5113600;27;20453;-74
2021/08/07 09:57:30;;;;;;;4.63;1.77;;;24.70;1.00;25.80;99474.00;;;;5108822;27;20463;-74
2021/08/07 10:00:04;;;;;;;3.60;1.60;;;24.60;1.00;25.50;99461.00;;;;5092211;28;20531;-72
2021/08/07 10:02:45;;;;;;;3.20;2.53;;;24.30;1.00;25.30;99427.00;;;;5093836;28;21009;-73
2021/08/07 10:05:27;;;;;;;3.27;1.67;;;24.10;1.00;25.20;99466.00;;;;5098784;28;20520;-74
2021/08/07 10:08:05;;;;;;;5.20;1.63;;;24.00;1.00;25.20;99460.00;;;;5096929;28;20959;-74
2021/08/07 10:10:44;;;;;;;2.43;1.33;;;23.80;1.00;25.10;99473.00;;;;5092039;28;20518;-73
2021/08/07 10:13:21;;;;;;;3.47;1.50;;;23.70;1.00;25.00;99473.00;;;;5089906;28;20496;-72
2021/08/07 10:16:06;;;;;;;4.13;1.30;;;23.70;1.00;24.70;99443.00;;;;5093723;28;20824;-73
2021/08/07 10:18:37;;;;;;;2.80;1.60;;;23.50;1.00;24.30;99468.00;;;;5095046;28;20474;-75
2021/08/07 10:21:06;;;;;;;4.77;2.03;;;23.50;1.00;24.50;99467.00;;;;5093377;28;20473;-75
2021/08/07 10:23:36;;;;;;;3.50;1.37;;;23.30;1.00;24.40;99465.00;;;;5091389;28;20484;-74
2021/08/07 10:26:09;;;;;;;5.50;3.53;;;23.20;1.00;24.40;99467.00;;;;5116764;27;20450;-72
2021/08/07 10:28:47;;;;;;;5.30;2.13;;;23.20;1.00;24.30;99469.00;;;;5111677;28;20453;-73
2021/08/07 10:31:20;;;;;;;4.13;1.87;;;23.20;1.00;24.10;99476.00;;;;5123916;27;20470;-71
2021/08/07 10:33:57;;;;;;;3.67;1.93;;;23.10;1.00;24.00;99451.00;;;;5094200;28;20675;-72
2021/08/07 10:36:27;;;;;;;4.30;1.77;;;22.90;1.00;23.80;99484.00;;;;5072945;28;20536;-72
2021/08/07 10:39:01;;;;;;;2.70;1.80;;;22.80;1.00;23.70;99499.00;;;;5088966;28;20466;-74
2021/08/07 10:41:31;;;;;;;5.50;2.30;;;22.70;1.00;23.60;99485.00;;;;5089262;28;20455;-73
2021/08/07 10:44:03;;;;;;;2.93;1.50;;;22.60;1.00;23.60;99485.00;;;;5078206;28;20522;-71
2021/08/07 10:46:32;;;;;;;4.70;1.77;;;22.50;1.00;23.50;99472.00;;;;5091016;28;20547;-71
2021/08/07 10:49:03;;;;;;;3.20;1.80;;;22.50;1.00;23.70;99430.00;;;;5088606;28;20466;-72
2021/08/07 10:51:40;;;;;;;3.13;1.63;;;22.50;1.00;23.80;99467.00;;;;5088982;28;20803;-73
2021/08/07 10:54:33;;;;;;;4.10;2.00;;;22.60;1.00;24.20;99445.00;;;;5105095;27;20567;-74
2021/08/07 10:57:03;;;;;;;3.43;1.80;;;23.00;1.00;24.50;99447.00;;;;5091054;28;20545;-72
2021/08/07 10:59:41;;;;;;;5.50;2.10;;;23.20;1.00;24.80;99451.00;;;;5094965;28;20476;-74
2021/08/07 11:02:22;;;;;;;5.23;1.83;;;23.60;1.00;24.90;99449.00;;;;5096113;28;20476;-74
2021/08/07 11:04:53;;;;;;;3.00;1.97;;;23.70;1.00;24.90;99451.00;;;;5114913;27;20493;-75
2021/08/07 11:07:23;;;;;;;3.40;2.00;;;23.70;1.00;24.70;99461.00;;;;5094693;28;20465;-75
2021/08/07 11:10:17;;;;;;;8.20;2.97;;;23.50;1.00;24.50;99471.00;;;;5092379;28;20449;-75
2021/08/07 11:12:46;;;;;;;5.73;1.87;;;23.30;1.00;24.30;99470.00;;;;5068349;28;20478;-75
2021/08/07 11:15:31;;;;;;;3.67;1.90;;;23.10;1.00;24.30;99450.00;;;;5069430;28;20462;-73
2021/08/07 11:18:26;;;;;;;4.27;1.63;;;23.10;1.00;24.30;99445.00;;;;5102944;28;20467;-71
2021/08/07 11:20:55;;;;;;;4.20;1.97;;;23.10;1.00;24.20;99430.00;;;;5110711;28;20475;-72
2021/08/07 11:23:26;;;;;;;4.17;1.53;;;23.00;1.00;23.90;99466.00;;;;5114953;28;20503;-72